This demonstration page uses our WeatherBlox Daily Observations layout. Learn more.

36.17497, -115.13722

Hourly Observations for July 16, 2016

Temp ( °F °C ) Dew Point ( °F °C ) Humidity (%) Winds ( mph kmh ) Pressure ( in mb ) Visibility ( mi km ) Precip ( " mm )
12:53 am 00:53 Clear 93 33.9 26 -3.3 9 9 S 12 19 29.59 1002 10 16.09344 0 0
1:53 am 01:53 Clear 92 33.3 32 0 12 12 SSW 14 22 29.59 1002 10 16.09344 0 0
2:53 am 02:53 Clear 90 32.2 37 2.8 15 15 SSW 14 22 29.59 1002 10 16.09344 0 0
3:53 am 03:53 Clear 88 31.1 37 2.8 16 16 S 13 20 29.56 1001 10 16.09344 0 0
4:53 am 04:53 Clear 85 29.4 34 1.1 16 16 WSW 7 11 29.62 1003 10 16.09344 0 0
5:53 am 05:53 Sunny 83 28.3 36 2.2 19 19 NW 3 6 29.65 1004 10 16.09344 0 0
6:53 am 06:53 Sunny 83 28.3 36 2.2 19 19 W 3 6 29.65 1004 10 16.09344 0 0
7:53 am 07:53 Sunny 85 29.4 38 3.3 19 19 NW 3 6 29.68 1005 10 16.09344 0 0
8:53 am 08:53 Sunny 90 32.2 38 3.3 16 16 NNW 3 6 29.65 1004 10 16.09344 0 0
9:53 am 09:53 Sunny 95 35 34 1.1 12 12 N 5 7 29.62 1003 10 16.09344 0 0
10:53 am 10:53 Sunny 101 38.3 24 -4.4 6 6 SW 20 31 29.62 1003 10 16.09344 0 0
11:53 am 11:53 Sunny 102 38.9 26 -3.3 7 7 SW 21 33 29.62 1003 10 16.09344 0 0
12:53 pm 12:53 Sunny 104 40 22 -5.6 5 5 SSW 21 33 29.56 1001 10 16.09344 0 0
1:53 pm 13:53 Sunny 105 40.6 16 -8.9 4 4 SW 22 35 29.56 1001 10 16.09344 0 0
2:53 pm 14:53 Sunny 106 41.1 15 -9.4 4 4 W 18 30 29.53 1000 10 16.09344 0 0
3:53 pm 15:53 Sunny 106 41.1 13 -10.6 3 3 SW 21 33 29.5 999 10 16.09344 0 0
4:53 pm 16:53 Sunny 106 41.1 13 -10.6 3 3 W 13 20 29.5 999 10 16.09344 0 0
5:53 pm 17:53 Sunny 105 40.6 12 -11.1 3 3 WSW 14 22 29.5 999 10 16.09344 0 0
6:53 pm 18:53 Sunny 103 39.4 11 -11.7 3 3 WSW 13 20 29.5 999 10 16.09344 0 0
7:53 pm 19:53 Sunny 101 38.3 14 -10 4 4 SW 10 17 29.5 999 10 16.09344 0 0
8:53 pm 20:53 Clear 98 36.7 17 -8.3 5 5 SW 7 11 29.53 1000 10 16.09344 0 0
9:53 pm 21:53 Clear 97 36.1 16 -8.9 5 5 W 8 13 29.56 1001 10 16.09344 0 0
10:53 pm 22:53 Clear 94 34.4 19 -7.2 6 6 S 9 15 29.56 1001 10 16.09344 0 0
11:53 pm 23:53 Clear 93 33.9 20 -6.7 7 7 S 13 20 29.59 1002 10 16.09344 0 0

Powered by AerisWeather